Time;durP1;ratioP1;P1;durP2;ratioP2;P2;SDS_P1;SDS_P2;PMS_P1;PMS_P2;Temp;Humidity;BMP_temperature;BMP_pressure;BME280_temperature;BME280_humidity;BME280_pressure;Samples;Min_cycle;Max_cycle;Signal;HPM_P1;HPM_P2
2022/07/29 00:00:20;;;;;;;;;;;;;;;26.18;54.39;97730.84;5141831;27;19923;-64
2022/07/29 00:02:46;;;;;;;;;;;;;;;26.36;54.36;97740.09;5138485;27;19931;-64
2022/07/29 00:05:13;;;;;;;;;;;;;;;26.79;53.20;97736.75;5138468;27;19923;-64
2022/07/29 00:07:39;;;;;;;;;;;;;;;27.07;52.58;97738.28;5141685;27;19932;-64
2022/07/29 00:10:06;;;;;;;;;;;;;;;27.20;52.31;97731.38;5141948;27;19951;-64
2022/07/29 00:12:32;;;;;;;;;;;;;;;27.33;51.93;97732.66;5133613;28;19959;-65
2022/07/29 00:14:59;;;;;;;;;;;;;;;27.38;51.53;97731.53;5138476;28;19924;-64
2022/07/29 00:17:26;;;;;;;;;;;;;;;27.27;51.42;97724.00;5139519;28;19966;-65
2022/07/29 00:19:53;;;;;;;;;;;;;;;27.00;51.71;97729.97;5141954;28;19924;-64
2022/07/29 00:22:19;;;;;;;;;;;;;;;26.69;52.68;97726.44;5141627;28;19920;-64
2022/07/29 00:24:47;;;;;;;;;;;;;;;26.33;53.26;97723.63;5138447;28;19949;-64
2022/07/29 00:27:13;;;;;;;;;;;;;;;26.26;53.91;97718.81;5138434;28;19924;-64
2022/07/29 00:29:40;;;;;;;;;;;;;;;26.75;53.04;97721.41;5141492;28;19931;-64
2022/07/29 00:32:06;;;;;;;;;;;;;;;26.90;52.65;97714.97;5141891;28;19923;-64
2022/07/29 00:37:18;;;;;;;;;;;;;;;27.11;51.98;97725.41;5138663;28;19931;-63
2022/07/29 00:39:44;;;;;;;;;;;;;;;27.15;51.93;97720.72;5141933;28;19923;-64
2022/07/29 00:42:11;;;;;;;;;;;;;;;27.17;51.83;97724.66;5136570;28;19923;-64
2022/07/29 00:44:38;;;;;;;;;;;;;;;27.20;51.63;97712.19;5137910;28;19974;-65
2022/07/29 00:47:04;;;;;;;;;;;;;;;27.21;51.62;97702.75;5138040;28;20065;-65
2022/07/29 00:49:30;;;;;;;;;;;;;;;26.91;51.80;97713.81;5139942;28;19982;-65
2022/07/29 00:51:58;;;;;;;;;;;;;;;26.98;52.23;97716.66;5141638;28;19923;-64
2022/07/29 00:54:26;;;;;;;;;;;;;;;27.24;51.47;97712.97;5139465;28;19939;-64
2022/07/29 00:56:52;;;;;;;;;;;;;;;27.35;51.31;97722.13;5138122;28;19977;-65
2022/07/29 00:59:19;;;;;;;;;;;;;;;27.40;51.34;97719.03;5138504;28;19934;-64
2022/07/29 01:01:45;;;;;;;;;;;;;;;27.37;51.25;97714.28;5141596;28;19927;-65
2022/07/29 01:04:11;;;;;;;;;;;;;;;27.37;51.25;97714.28;5141627;28;19923;-65
2022/07/29 01:06:38;;;;;;;;;;;;;;;27.43;51.17;97706.53;5138416;28;19979;-64
2022/07/29 01:09:06;;;;;;;;;;;;;;;27.37;51.15;97706.06;5139106;27;19971;-64
2022/07/29 01:11:33;;;;;;;;;;;;;;;27.34;51.01;97706.81;5143831;27;19996;-64
2022/07/29 01:14:00;;;;;;;;;;;;;;;27.40;51.03;97707.25;5139319;27;19997;-64
2022/07/29 01:16:31;;;;;;;;;;;;;;;27.40;51.00;97691.59;5143901;27;19962;-64
2022/07/29 01:19:01;;;;;;;;;;;;;;;27.23;51.16;97690.25;5141720;27;19931;-63
2022/07/29 01:21:41;;;;;;;;;;;;;;;26.91;51.53;97685.63;5142995;27;19935;-63
2022/07/29 01:24:26;;;;;;;;;;;;;;;26.97;51.83;97689.59;5145147;27;19969;-64
2022/07/29 01:26:58;;;;;;;;;;;;;;;27.10;51.50;97690.91;5126905;27;19924;-64
2022/07/29 01:29:27;;;;;;;;;;;;;;;27.18;51.30;97681.59;5142304;27;19924;-64
2022/07/29 01:31:57;;;;;;;;;;;;;;;27.24;51.10;97685.56;5145083;27;19970;-63
2022/07/29 01:34:25;;;;;;;;;;;;;;;27.23;51.15;97682.03;5143948;27;19962;-64
2022/07/29 01:36:55;;;;;;;;;;;;;;;27.24;51.25;97680.06;5141245;27;19924;-64
2022/07/29 01:39:26;;;;;;;;;;;;;;;27.25;51.05;97676.19;5141649;27;19958;-64
2022/07/29 01:41:57;;;;;;;;;;;;;;;26.99;51.40;97673.56;5142065;27;19954;-64
2022/07/29 01:44:27;;;;;;;;;;;;;;;26.48;52.40;97671.41;5140989;27;19924;-65
2022/07/29 01:46:58;;;;;;;;;;;;;;;26.17;53.33;97666.31;5140940;27;19924;-63
2022/07/29 01:49:27;;;;;;;;;;;;;;;26.49;53.03;97667.50;5141958;27;19934;-63
2022/07/29 01:51:55;;;;;;;;;;;;;;;26.61;52.79;97661.78;5144377;27;19938;-64
2022/07/29 01:54:24;;;;;;;;;;;;;;;26.42;52.88;97661.94;5143802;27;19928;-64
2022/07/29 01:56:52;;;;;;;;;;;;;;;26.13;53.95;97659.94;5140843;27;19955;-64
2022/07/29 01:59:19;;;;;;;;;;;;;;;26.40;53.42;97658.78;5141073;27;19928;-64
2022/07/29 02:01:47;;;;;;;;;;;;;;;26.51;53.39;97659.72;5144338;27;19923;-64
2022/07/29 02:04:16;;;;;;;;;;;;;;;26.61;53.01;97648.09;5144328;27;19955;-65
2022/07/29 02:06:43;;;;;;;;;;;;;;;26.60;53.13;97646.50;5132203;27;19967;-64
2022/07/29 02:09:11;;;;;;;;;;;;;;;26.66;53.20;97639.53;5140629;27;19920;-64
2022/07/29 02:11:38;;;;;;;;;;;;;;;26.43;53.54;97651.78;5142899;27;20014;-64
2022/07/29 02:14:05;;;;;;;;;;;;;;;26.36;53.80;97651.69;5138877;27;19924;-64
2022/07/29 02:16:32;;;;;;;;;;;;;;;26.51;53.62;97648.75;5141857;27;19923;-64
2022/07/29 02:19:01;;;;;;;;;;;;;;;26.41;53.89;97654.09;5140443;27;19936;-65
2022/07/29 02:21:30;;;;;;;;;;;;;;;26.38;53.87;97654.84;5140997;27;19962;-65
2022/07/29 02:23:58;;;;;;;;;;;;;;;26.14;54.86;97650.59;5142800;27;19928;-65
2022/07/29 02:26:26;;;;;;;;;;;;;;;26.08;55.04;97646.59;5142762;27;19991;-65
2022/07/29 02:28:54;;;;;;;;;;;;;;;25.88;56.11;97656.06;5140089;27;19924;-64
2022/07/29 02:31:24;;;;;;;;;;;;;;;25.61;57.03;97655.28;5140836;27;19951;-65
2022/07/29 02:33:50;;;;;;;;;;;;;;;25.66;57.16;97660.44;5143751;27;19924;-64
2022/07/29 02:36:17;;;;;;;;;;;;;;;25.82;56.64;97666.56;5143920;27;19923;-65
2022/07/29 02:38:52;;;;;;;;;;;;;;;25.90;56.65;97662.78;5131806;27;19963;-65
2022/07/29 02:41:19;;;;;;;;;;;;;;;25.80;56.92;97670.81;5140132;27;19931;-64
2022/07/29 02:43:47;;;;;;;;;;;;;;;25.70;57.19;97667.56;5137523;27;19973;-64
2022/07/29 02:46:17;;;;;;;;;;;;;;;26.09;56.42;97661.88;5143344;27;20171;-65
2022/07/29 02:48:49;;;;;;;;;;;;;;;26.22;55.71;97657.75;5131486;27;19923;-65
2022/07/29 02:51:19;;;;;;;;;;;;;;;26.30;55.60;97654.72;5139864;27;19927;-64
2022/07/29 02:53:49;;;;;;;;;;;;;;;25.93;56.31;97655.78;5131709;27;19962;-65
2022/07/29 02:56:17;;;;;;;;;;;;;;;25.84;57.03;97660.72;5138511;27;19935;-65
2022/07/29 02:58:46;;;;;;;;;;;;;;;26.03;56.36;97647.69;5131247;27;19924;-64
2022/07/29 03:01:15;;;;;;;;;;;;;;;26.36;55.60;97662.63;5139548;27;19924;-65
2022/07/29 03:03:43;;;;;;;;;;;;;;;26.54;55.21;97655.44;5142849;27;19945;-63
2022/07/29 03:06:10;;;;;;;;;;;;;;;26.65;54.89;97651.66;5142888;27;19939;-64
2022/07/29 03:08:37;;;;;;;;;;;;;;;26.66;54.82;97657.91;5140143;27;19962;-63
2022/07/29 03:11:05;;;;;;;;;;;;;;;26.57;54.93;97652.72;5139371;27;19931;-64
2022/07/29 03:13:31;;;;;;;;;;;;;;;26.63;54.72;97651.25;5135300;27;19928;-65
2022/07/29 03:15:58;;;;;;;;;;;;;;;26.69;54.57;97657.97;5142794;27;20017;-64
2022/07/29 03:18:25;;;;;;;;;;;;;;;26.76;54.47;97658.03;5141596;27;19926;-65
2022/07/29 03:20:52;;;;;;;;;;;;;;;26.78;54.26;97655.72;5139205;27;19924;-64
2022/07/29 03:23:19;;;;;;;;;;;;;;;26.81;54.12;97657.72;5139441;27;19924;-64
2022/07/29 03:25:46;;;;;;;;;;;;;;;26.81;54.21;97657.72;5142681;27;19924;-64
2022/07/29 03:28:13;;;;;;;;;;;;;;;26.83;54.30;97660.09;5142718;27;19923;-64
2022/07/29 03:30:40;;;;;;;;;;;;;;;26.83;54.29;97658.13;5139049;27;20397;-64
2022/07/29 03:33:06;;;;;;;;;;;;;;;26.86;54.26;97664.84;5139041;27;19931;-64
2022/07/29 03:35:32;;;;;;;;;;;;;;;26.85;54.04;97660.50;5139882;27;19928;-64
2022/07/29 03:37:59;;;;;;;;;;;;;;;26.63;54.64;97656.72;5142594;27;19999;-64
2022/07/29 03:40:28;;;;;;;;;;;;;;;25.80;56.29;97659.88;5141454;27;19923;-64
2022/07/29 03:42:56;;;;;;;;;;;;;;;25.93;56.73;97655.78;5132816;27;19920;-64
2022/07/29 03:45:24;;;;;;;;;;;;;;;26.21;55.94;97651.50;5139337;27;20017;-64
2022/07/29 03:47:53;;;;;;;;;;;;;;;26.40;55.38;97652.53;5142331;27;19927;-64
2022/07/29 03:50:21;;;;;;;;;;;;;;;26.54;55.07;97667.19;5141998;27;19962;-64
2022/07/29 03:52:48;;;;;;;;;;;;;;;26.62;54.75;97657.88;5138567;27;19923;-64
2022/07/29 03:55:14;;;;;;;;;;;;;;;26.67;54.65;97665.78;5138591;27;20000;-64
2022/07/29 03:57:41;;;;;;;;;;;;;;;26.70;54.60;97673.25;5141863;27;19924;-64
2022/07/29 04:00:08;;;;;;;;;;;;;;;26.73;54.35;97675.22;5142280;27;19945;-64
2022/07/29 04:02:36;;;;;;;;;;;;;;;26.75;54.29;97669.38;5139524;27;19927;-64
2022/07/29 04:05:03;;;;;;;;;;;;;;;26.75;54.22;97675.63;5138635;27;19992;-64
2022/07/29 04:07:29;;;;;;;;;;;;;;;26.73;54.19;97680.72;5139863;27;19932;-64
2022/07/29 04:09:56;;;;;;;;;;;;;;;26.72;54.14;97678.34;5141976;27;19958;-65
2022/07/29 04:12:22;;;;;;;;;;;;;;;26.69;54.09;97690.84;5135100;27;19965;-65
2022/07/29 04:14:49;;;;;;;;;;;;;;;26.64;53.94;97693.13;5138296;27;19924;-65
2022/07/29 04:17:16;;;;;;;;;;;;;;;26.60;53.91;97690.34;5138390;28;19931;-65
2022/07/29 04:19:44;;;;;;;;;;;;;;;26.64;54.04;97695.84;5129779;28;19924;-64
2022/07/29 04:22:10;;;;;;;;;;;;;;;26.61;53.89;97694.66;5138348;28;19932;-64
2022/07/29 04:24:37;;;;;;;;;;;;;;;26.60;54.13;97697.75;5140827;28;19924;-64
2022/07/29 04:27:03;;;;;;;;;;;;;;;26.49;53.93;97703.09;5141716;28;20711;-65
2022/07/29 04:29:29;;;;;;;;;;;;;;;26.57;54.30;97702.03;5139758;28;19951;-64
2022/07/29 04:31:56;;;;;;;;;;;;;;;26.56;54.38;97707.88;5138138;28;19924;-64
2022/07/29 04:34:22;;;;;;;;;;;;;;;26.53;54.54;97706.66;5137623;28;20015;-65
2022/07/29 04:36:50;;;;;;;;;;;;;;;26.53;54.60;97701.19;5141598;28;19927;-64
2022/07/29 04:39:17;;;;;;;;;;;;;;;26.45;55.06;97710.50;5141695;28;19951;-64
2022/07/29 04:41:44;;;;;;;;;;;;;;;26.50;55.08;97709.34;5129859;28;19994;-64
2022/07/29 04:44:10;;;;;;;;;;;;;;;26.48;55.15;97717.97;5138661;27;19923;-65
2022/07/29 04:46:37;;;;;;;;;;;;;;;26.44;55.42;97716.31;5142937;27;19960;-64
2022/07/29 04:49:04;;;;;;;;;;;;;;;26.44;55.44;97713.59;5142230;27;20466;-65
2022/07/29 04:51:30;;;;;;;;;;;;;;;26.45;55.21;97705.00;5143559;27;19924;-65
2022/07/29 04:53:58;;;;;;;;;;;;;;;26.43;55.30;97714.75;5145638;27;19959;-64
2022/07/29 04:56:24;;;;;;;;;;;;;;;26.48;55.13;97708.94;5144579;27;19986;-65
2022/07/29 04:58:50;;;;;;;;;;;;;;;26.23;55.18;97708.63;5141745;27;20027;-65
2022/07/29 05:01:16;;;;;;;;;;;;;;;26.22;55.58;97712.50;5141876;27;19924;-65
2022/07/29 05:03:43;;;;;;;;;;;;;;;26.34;55.29;97715.03;5141916;27;19934;-63
2022/07/29 05:06:10;;;;;;;;;;;;;;;26.42;55.18;97711.22;5141922;27;20333;-64
2022/07/29 05:08:36;;;;;;;;;;;;;;;26.44;54.82;97708.91;5144368;27;19923;-64
2022/07/29 05:11:04;;;;;;;;;;;;;;;26.19;55.12;97719.50;5145228;27;19985;-64
2022/07/29 05:13:31;;;;;;;;;;;;;;;26.05;55.53;97724.75;5136575;27;19923;-64
2022/07/29 05:15:58;;;;;;;;;;;;;;;25.83;55.63;97733.00;5145228;27;19930;-64
2022/07/29 05:18:24;;;;;;;;;;;;;;;25.34;56.74;97725.53;5144102;27;19934;-64
2022/07/29 05:20:50;;;;;;;;;;;;;;;24.71;58.41;97720.38;5141530;27;19924;-64
2022/07/29 05:23:17;;;;;;;;;;;;;;;24.68;59.23;97718.38;5141519;27;19949;-64
2022/07/29 05:25:43;;;;;;;;;;;;;;;24.85;59.20;97727.31;5132980;27;19924;-63
2022/07/29 05:28:11;;;;;;;;;;;;;;;24.57;60.05;97722.03;5141564;27;19935;-64
2022/07/29 05:30:37;;;;;;;;;;;;;;;25.24;59.04;97732.38;5144142;27;19920;-64
2022/07/29 05:33:04;;;;;;;;;;;;;;;25.48;58.13;97736.69;5144796;27;19923;-65
2022/07/29 05:35:30;;;;;;;;;;;;;;;25.78;57.29;97723.94;5142992;27;19923;-64
2022/07/29 05:37:56;;;;;;;;;;;;;;;25.88;56.85;97725.25;5141235;27;19930;-64
2022/07/29 05:40:23;;;;;;;;;;;;;;;26.03;56.20;97727.06;5141985;27;19938;-64
2022/07/29 05:42:49;;;;;;;;;;;;;;;26.05;56.36;97732.19;5140011;27;19958;-63
2022/07/29 05:45:17;;;;;;;;;;;;;;;26.15;55.99;97723.34;5140816;27;19923;-64
2022/07/29 05:47:43;;;;;;;;;;;;;;;26.07;56.09;97738.06;5140935;27;19919;-64
2022/07/29 05:50:09;;;;;;;;;;;;;;;26.01;56.14;97729.38;5139440;27;20028;-64
2022/07/29 05:52:36;;;;;;;;;;;;;;;25.97;55.95;97734.00;5143181;27;19924;-64
2022/07/29 05:55:05;;;;;;;;;;;;;;;26.10;55.73;97731.84;5143608;27;20002;-65
2022/07/29 05:57:31;;;;;;;;;;;;;;;26.20;55.40;97734.00;5142076;27;19991;-64
2022/07/29 05:59:58;;;;;;;;;;;;;;;26.12;55.31;97724.09;5140769;27;19923;-65
2022/07/29 06:02:26;;;;;;;;;;;;;;;26.14;55.12;97732.72;5141759;27;19951;-64
2022/07/29 06:04:52;;;;;;;;;;;;;;;25.74;55.00;97736.78;5144078;27;19958;-64
2022/07/29 06:07:18;;;;;;;;;;;;;;;25.73;55.68;97732.47;5143980;27;19924;-64
2022/07/29 06:09:45;;;;;;;;;;;;;;;25.67;55.70;97735.88;5140363;27;19924;-64
2022/07/29 06:12:11;;;;;;;;;;;;;;;25.52;56.09;97732.13;5140180;27;19930;-64
2022/07/29 06:14:38;;;;;;;;;;;;;;;25.02;57.59;97729.59;5140318;27;19927;-64
2022/07/29 06:17:05;;;;;;;;;;;;;;;25.01;58.44;97734.25;5140383;27;19930;-64
2022/07/29 06:19:34;;;;;;;;;;;;;;;25.29;57.86;97734.00;5142170;27;19923;-64
2022/07/29 06:22:01;;;;;;;;;;;;;;;25.68;56.98;97738.25;5144015;27;19923;-65
2022/07/29 06:24:27;;;;;;;;;;;;;;;25.70;56.73;97730.47;5142488;27;19934;-64
2022/07/29 06:26:53;;;;;;;;;;;;;;;25.45;56.76;97731.16;5140315;27;19919;-64
2022/07/29 06:29:20;;;;;;;;;;;;;;;25.37;57.31;97737.66;5140632;27;19955;-64
2022/07/29 06:31:46;;;;;;;;;;;;;;;25.08;57.68;97736.34;5143628;27;19935;-64
2022/07/29 06:34:12;;;;;;;;;;;;;;;25.10;57.70;97728.56;5143756;27;19968;-64
2022/07/29 06:36:40;;;;;;;;;;;;;;;24.78;59.04;97736.13;5140616;27;19978;-64
2022/07/29 06:39:07;;;;;;;;;;;;;;;24.86;59.46;97729.69;5140072;27;19976;-65
2022/07/29 06:41:33;;;;;;;;;;;;;;;25.27;58.33;97741.00;5142023;27;19977;-64
2022/07/29 06:43:59;;;;;;;;;;;;;;;25.34;57.93;97732.94;5137314;27;19932;-64
2022/07/29 06:46:27;;;;;;;;;;;;;;;25.75;56.93;97738.34;5142265;27;19919;-64
2022/07/29 06:48:54;;;;;;;;;;;;;;;25.77;56.69;97740.72;5139928;27;19923;-64
2022/07/29 06:51:20;;;;;;;;;;;;;;;25.53;57.44;97752.03;5139976;27;19924;-64
2022/07/29 06:53:48;;;;;;;;;;;;;;;25.60;57.29;97754.88;5143117;27;19936;-64
2022/07/29 06:56:14;;;;;;;;;;;;;;;25.89;56.63;97759.69;5143368;27;19934;-64
2022/07/29 06:58:41;;;;;;;;;;;;;;;26.12;55.73;97767.88;5139648;27;19959;-65
2022/07/29 07:01:07;;;;;;;;;;;;;;;26.20;55.59;97769.59;5139737;27;19995;-64
2022/07/29 07:03:34;;;;;;;;;;;;;;;26.44;55.29;97769.16;5141613;27;20006;-64
2022/07/29 07:06:00;;;;;;;;;;;;;;;26.59;54.85;97773.66;5143182;27;19938;-64
2022/07/29 07:08:26;;;;;;;;;;;;;;;26.80;54.49;97765.75;5141452;27;19934;-64
2022/07/29 07:10:54;;;;;;;;;;;;;;;26.83;54.52;97764.22;5139491;27;19924;-64
2022/07/29 07:13:21;;;;;;;;;;;;;;;26.90;54.18;97767.03;5133756;27;19934;-64
2022/07/29 07:15:48;;;;;;;;;;;;;;;27.02;54.09;97764.03;5142760;27;19928;-65
2022/07/29 07:18:15;;;;;;;;;;;;;;;27.24;53.74;97765.06;5142923;27;19981;-64
2022/07/29 07:20:41;;;;;;;;;;;;;;;26.95;54.44;97771.41;5139482;27;19924;-64
2022/07/29 07:23:07;;;;;;;;;;;;;;;27.00;54.63;97760.91;5139322;27;19986;-64
2022/07/29 07:25:34;;;;;;;;;;;;;;;27.03;54.62;97757.41;5141228;27;19992;-64
2022/07/29 07:28:01;;;;;;;;;;;;;;;26.77;55.42;97760.97;5142788;27;19966;-64
2022/07/29 07:30:28;;;;;;;;;;;;;;;27.08;54.98;97770.00;5141185;27;19961;-65
2022/07/29 07:32:55;;;;;;;;;;;;;;;26.61;55.96;97770.56;5137933;27;19935;-64
2022/07/29 07:35:21;;;;;;;;;;;;;;;26.57;56.37;97776.00;5139460;27;19924;-65
2022/07/29 07:37:48;;;;;;;;;;;;;;;26.48;57.04;97766.47;5142510;27;19938;-65
2022/07/29 07:40:14;;;;;;;;;;;;;;;26.95;56.73;97758.50;5142517;27;19930;-64
2022/07/29 07:42:41;;;;;;;;;;;;;;;27.45;55.91;97754.34;5132987;27;19930;-64
2022/07/29 07:45:10;;;;;;;;;;;;;;;27.97;54.44;97750.50;5138864;27;19932;-64
2022/07/29 07:47:36;;;;;;;;;;;;;;;28.18;54.01;97744.41;5141282;27;19924;-65
2022/07/29 07:50:03;;;;;;;;;;;;;;;28.32;53.72;97749.97;5142377;27;19967;-64
2022/07/29 07:52:29;;;;;;;;;;;;;;;28.16;54.15;97747.53;5140517;27;19955;-65
2022/07/29 07:54:56;;;;;;;;;;;;;;;28.00;54.34;97751.72;5138865;27;19923;-64
2022/07/29 07:57:22;;;;;;;;;;;;;;;28.34;54.19;97744.91;5139291;27;19931;-66
2022/07/29 07:59:48;;;;;;;;;;;;;;;28.11;53.88;97744.34;5142402;27;19992;-65
2022/07/29 08:02:16;;;;;;;;;;;;;;;27.44;55.39;97744.56;5142272;27;19951;-64
2022/07/29 08:04:43;;;;;;;;;;;;;;;27.58;56.14;97747.44;5138663;28;19958;-63
2022/07/29 08:07:09;;;;;;;;;;;;;;;27.15;56.78;97748.13;5138703;27;19965;-64
2022/07/29 08:09:36;;;;;;;;;;;;;;;26.72;58.50;97744.09;5141036;27;20296;-64
2022/07/29 08:12:03;;;;;;;;;;;;;;;26.55;59.76;97758.34;5138004;27;19966;-64
2022/07/29 08:14:30;;;;;;;;;;;;;;;26.83;59.01;97751.28;5138281;27;19947;-64
2022/07/29 08:16:56;;;;;;;;;;;;;;;27.15;58.87;97753.63;5138363;28;19962;-64
2022/07/29 08:19:24;;;;;;;;;;;;;;;27.80;57.20;97754.69;5138437;27;20007;-65
2022/07/29 08:21:52;;;;;;;;;;;;;;;27.62;56.96;97756.50;5142010;28;19923;-65
2022/07/29 08:27:02;;;;;;;;;;;;;;;28.79;54.87;97747.13;5138546;28;20062;-64
2022/07/29 08:29:29;;;;;;;;;;;;;;;28.45;55.81;97751.25;5139978;28;19951;-64
2022/07/29 08:31:55;;;;;;;;;;;;;;;27.95;57.29;97744.59;5141911;28;19945;-64
2022/07/29 08:34:22;;;;;;;;;;;;;;;27.80;58.08;97748.41;5141299;28;19923;-64
2022/07/29 08:36:49;;;;;;;;;;;;;;;27.82;58.69;97746.84;5138130;28;19924;-64
2022/07/29 08:39:16;;;;;;;;;;;;;;;27.97;57.58;97749.72;5138466;28;19923;-64
2022/07/29 08:41:42;;;;;;;;;;;;;;;28.64;57.47;97748.22;5140510;28;19978;-64
2022/07/29 08:44:09;;;;;;;;;;;;;;;28.84;55.90;97755.00;5136996;28;19969;-65
2022/07/29 08:46:38;;;;;;;;;;;;;;;29.10;55.34;97751.16;5138942;28;19962;-64
2022/07/29 08:49:04;;;;;;;;;;;;;;;29.42;54.86;97754.03;5138105;28;19924;-64
2022/07/29 08:51:31;;;;;;;;;;;;;;;28.46;56.21;97750.09;5139696;28;19924;-65
2022/07/29 08:53:59;;;;;;;;;;;;;;;27.61;58.84;97754.91;5141748;28;19919;-64
2022/07/29 08:56:26;;;;;;;;;;;;;;;27.39;60.51;97746.84;5140599;28;19923;-63
2022/07/29 08:58:52;;;;;;;;;;;;;;;26.94;62.26;97764.34;5137956;28;19992;-64
2022/07/29 09:01:22;;;;;;;;;;;;;;;26.93;65.17;97757.28;5137967;28;19920;-64
2022/07/29 09:03:49;;;;;;;;;;;;;;;27.10;65.10;97757.50;5141517;28;19920;-64
2022/07/29 09:06:17;;;;;;;;;;;;;;;27.06;64.62;97755.88;5141535;28;19924;-64
2022/07/29 09:08:44;;;;;;;;;;;;;;;27.01;65.68;97750.72;5129602;28;19927;-64
2022/07/29 09:11:12;;;;;;;;;;;;;;;27.05;66.39;97744.09;5138003;28;19947;-64
2022/07/29 09:13:38;;;;;;;;;;;;;;;27.43;65.02;97753.16;5134534;28;19924;-64
2022/07/29 09:16:05;;;;;;;;;;;;;;;27.85;63.37;97748.84;5141453;28;19927;-64
2022/07/29 09:18:35;;;;;;;;;;;;;;;28.57;60.35;97745.41;5138346;28;19931;-65
2022/07/29 09:24:00;;;;;;;;;;;;;;;28.02;60.37;97752.09;5129830;28;19923;-65
2022/07/29 09:26:30;;;;;;;;;;;;;;;27.63;61.10;97746.31;5138719;28;19924;-64
2022/07/29 09:28:57;;;;;;;;;;;;;;;27.26;63.51;97743.56;5141349;28;19930;-64
2022/07/29 09:31:32;;;;;;;;;;;;;;;27.33;63.77;97751.84;5143735;27;19924;-64
2022/07/29 09:34:00;;;;;;;;;;;;;;;27.29;64.50;97746.34;5141539;27;19931;-64
2022/07/29 09:36:26;;;;;;;;;;;;;;;27.36;66.27;97746.41;5142506;27;19931;-65
2022/07/29 09:38:57;;;;;;;;;;;;;;;26.98;70.12;97738.56;5144856;27;19991;-64
2022/07/29 09:41:24;;;;;;;;;;;;;;;26.99;70.78;97733.84;5143937;27;19924;-62
2022/07/29 09:43:55;;;;;;;;;;;;;;;26.88;71.02;97731.00;5137159;27;20053;-62
2022/07/29 09:46:22;;;;;;;;;;;;;;;27.05;70.24;97735.88;5144066;27;19935;-63
2022/07/29 09:49:06;;;;;;;;;;;;;;;27.36;68.37;97737.38;5140934;27;19951;-63
2022/07/29 09:51:32;;;;;;;;;;;;;;;27.32;68.27;97736.59;5142916;27;19974;-62
2022/07/29 09:54:00;;;;;;;;;;;;;;;27.50;66.02;97734.81;5144733;27;19931;-63
2022/07/29 09:56:39;;;;;;;;;;;;;;;27.30;66.40;97731.47;5143505;27;19923;-62
2022/07/29 09:59:07;;;;;;;;;;;;;;;27.44;64.53;97739.06;5141104;27;19931;-64
2022/07/29 10:01:34;;;;;;;;;;;;;;;27.24;65.46;97732.97;5142935;27;19930;-63
2022/07/29 10:04:01;;;;;;;;;;;;;;;27.49;63.49;97729.69;5144436;27;19923;-62
2022/07/29 10:06:27;;;;;;;;;;;;;;;27.40;63.70;97720.97;5143035;27;19927;-64
2022/07/29 10:08:54;;;;;;;;;;;;;;;27.80;62.65;97718.22;5140748;27;20487;-63
2022/07/29 10:11:20;;;;;;;;;;;;;;;28.00;61.05;97727.00;5140966;27;19967;-63
2022/07/29 10:13:47;;;;;;;;;;;;;;;28.06;60.53;97718.06;5138159;27;19951;-64
2022/07/29 10:16:15;;;;;;;;;;;;;;;28.29;60.07;97718.59;5144364;27;19931;-64
2022/07/29 10:18:43;;;;;;;;;;;;;;;28.49;59.76;97705.34;5140820;27;19924;-63
2022/07/29 10:21:09;;;;;;;;;;;;;;;28.33;58.72;97713.91;5140686;27;19920;-63
2022/07/29 10:23:36;;;;;;;;;;;;;;;27.97;59.80;97708.53;5143089;27;19924;-63
2022/07/29 10:26:03;;;;;;;;;;;;;;;28.50;59.13;97712.44;5144147;27;19954;-64
2022/07/29 10:28:30;;;;;;;;;;;;;;;28.32;57.66;97711.53;5142369;27;19951;-62
2022/07/29 10:31:01;;;;;;;;;;;;;;;28.21;58.62;97702.47;5140528;27;19923;-62
2022/07/29 10:33:40;;;;;;;;;;;;;;;28.35;58.55;97700.56;5141728;27;19924;-63
2022/07/29 10:36:14;;;;;;;;;;;;;;;28.59;57.88;97704.63;5143950;27;19953;-63
2022/07/29 10:38:45;;;;;;;;;;;;;;;28.67;56.78;97706.25;5140513;27;19955;-63
2022/07/29 10:41:29;;;;;;;;;;;;;;;27.91;58.12;97696.34;5139835;27;19931;-62
2022/07/29 10:43:57;;;;;;;;;;;;;;;27.90;58.93;97695.56;5136009;27;19965;-63
2022/07/29 10:46:24;;;;;;;;;;;;;;;28.10;58.57;97693.38;5142444;27;19974;-62
2022/07/29 10:49:11;;;;;;;;;;;;;;;28.43;57.37;97701.41;5139871;27;19952;-63
2022/07/29 10:51:54;;;;;;;;;;;;;;;28.60;57.15;97686.94;5142575;27;19923;-63
2022/07/29 10:54:36;;;;;;;;;;;;;;;28.51;57.12;97691.22;5143229;27;19931;-62
2022/07/29 10:57:11;;;;;;;;;;;;;;;28.36;57.88;97702.16;5139864;27;19923;-63
2022/07/29 10:59:40;;;;;;;;;;;;;;;28.45;57.56;97696.31;5141925;27;20296;-63
2022/07/29 11:02:21;;;;;;;;;;;;;;;28.57;57.41;97684.97;5143366;27;19959;-64
2022/07/29 11:05:03;;;;;;;;;;;;;;;28.81;56.47;97684.31;5131636;27;19967;-64
2022/07/29 11:07:29;;;;;;;;;;;;;;;28.65;57.56;97683.88;5141090;27;19930;-62
2022/07/29 11:10:15;;;;;;;;;;;;;;;28.55;57.36;97676.34;5143067;27;19924;-63
2022/07/29 11:12:47;;;;;;;;;;;;;;;28.78;57.01;97674.09;5133384;27;19945;-64
2022/07/29 11:15:18;;;;;;;;;;;;;;;28.94;56.99;97682.78;5139795;27;19928;-63
2022/07/29 11:18:04;;;;;;;;;;;;;;;28.87;56.33;97673.75;5131165;27;19924;-65
2022/07/29 11:20:39;;;;;;;;;;;;;;;28.93;56.75;97672.19;5140923;27;19924;-64
2022/07/29 11:23:24;;;;;;;;;;;;;;;29.51;55.66;97680.16;5142837;27;19924;-64
2022/07/29 11:26:10;;;;;;;;;;;;;;;29.42;55.57;97672.28;5131797;27;19975;-65
2022/07/29 11:28:39;;;;;;;;;;;;;;;29.46;55.22;97675.81;5141439;27;19927;-64
2022/07/29 11:31:06;;;;;;;;;;;;;;;29.24;56.16;97673.44;5142739;27;19991;-64
2022/07/29 11:33:33;;;;;;;;;;;;;;;29.04;56.66;97664.75;5140595;27;19990;-64
2022/07/29 11:36:11;;;;;;;;;;;;;;;29.10;56.83;97662.38;5139149;27;19924;-63
2022/07/29 11:38:38;;;;;;;;;;;;;;;29.60;55.93;97653.03;5141958;27;19928;-64
2022/07/29 11:41:21;;;;;;;;;;;;;;;29.50;55.37;97659.31;5142723;27;19934;-65
2022/07/29 11:43:48;;;;;;;;;;;;;;;29.20;56.02;97661.63;5132590;27;19929;-64
2022/07/29 11:46:15;;;;;;;;;;;;;;;29.11;56.27;97658.47;5142441;27;19989;-64
2022/07/29 11:48:42;;;;;;;;;;;;;;;28.85;57.04;97665.06;5139284;27;19923;-64
2022/07/29 11:51:11;;;;;;;;;;;;;;;29.31;56.32;97673.44;5138817;27;19935;-64
2022/07/29 11:53:38;;;;;;;;;;;;;;;29.40;55.63;97684.88;5140528;27;19964;-65
2022/07/29 11:56:04;;;;;;;;;;;;;;;29.29;55.57;97675.81;5142545;27;19991;-64
2022/07/29 11:58:31;;;;;;;;;;;;;;;29.35;55.43;97671.50;5140468;27;19923;-65
2022/07/29 12:00:58;;;;;;;;;;;;;;;29.20;55.92;97667.13;5138756;27;19924;-64
2022/07/29 12:03:25;;;;;;;;;;;;;;;29.20;56.19;97661.63;5138371;27;19931;-64
2022/07/29 12:05:52;;;;;;;;;;;;;;;29.37;56.00;97671.91;5142039;27;20034;-64
2022/07/29 12:08:21;;;;;;;;;;;;;;;29.55;55.77;97667.19;5142242;27;19923;-64
2022/07/29 12:10:48;;;;;;;;;;;;;;;29.52;55.53;97661.69;5142170;27;19955;-64
2022/07/29 12:13:16;;;;;;;;;;;;;;;29.57;55.86;97664.03;5134260;28;19931;-64
2022/07/29 12:15:43;;;;;;;;;;;;;;;29.29;55.74;97670.31;5141763;27;19975;-64
2022/07/29 12:18:11;;;;;;;;;;;;;;;29.03;55.90;97665.91;5141998;28;19919;-65
2022/07/29 12:20:37;;;;;;;;;;;;;;;28.92;56.41;97654.09;5139211;28;20074;-64
2022/07/29 12:23:05;;;;;;;;;;;;;;;29.05;56.52;97665.53;5138467;28;20097;-63
2022/07/29 12:25:34;;;;;;;;;;;;;;;29.32;56.04;97647.50;5140181;28;19999;-65
2022/07/29 12:28:00;;;;;;;;;;;;;;;29.65;55.76;97651.84;5141920;28;19923;-64
2022/07/29 12:30:35;;;;;;;;;;;;;;;29.84;54.73;97654.19;5140874;28;19938;-64
2022/07/29 12:33:01;;;;;;;;;;;;;;;29.86;54.90;97658.16;5138430;28;19995;-65
2022/07/29 12:35:28;;;;;;;;;;;;;;;29.93;54.76;97660.88;5139709;28;19924;-64
2022/07/29 12:37:54;;;;;;;;;;;;;;;29.72;55.09;97651.81;5141890;28;19959;-64
2022/07/29 12:40:22;;;;;;;;;;;;;;;29.42;54.09;97664.03;5141647;28;19924;-64
2022/07/29 12:43:04;;;;;;;;;;;;;;;29.38;53.75;97662.44;5131943;28;19928;-65
2022/07/29 12:45:32;;;;;;;;;;;;;;;29.36;53.84;97642.81;5137182;28;19949;-64
2022/07/29 12:47:58;;;;;;;;;;;;;;;29.53;53.99;97625.50;5141825;28;19924;-64
2022/07/29 12:50:25;;;;;;;;;;;;;;;29.79;54.00;97630.59;5141140;28;20563;-64
2022/07/29 12:52:52;;;;;;;;;;;;;;;30.08;53.89;97633.31;5138228;28;19923;-64
2022/07/29 12:55:33;;;;;;;;;;;;;;;30.18;53.50;97627.75;5138416;28;19928;-65
2022/07/29 12:57:59;;;;;;;;;;;;;;;30.29;53.13;97627.75;5132071;28;19983;-64
2022/07/29 13:00:25;;;;;;;;;;;;;;;30.15;53.13;97625.00;5139364;28;19923;-64